createdAt,value
2023-02-13T00:03:56.921Z,6.72
2023-02-13T00:09:17.433Z,7.95
2023-02-13T00:14:39.792Z,7.00
2023-02-13T00:20:00.394Z,6.72
2023-02-13T00:25:21.630Z,6.60
2023-02-13T00:30:42.351Z,6.70
2023-02-13T00:36:12.933Z,7.03
2023-02-13T00:41:33.831Z,6.47
2023-02-13T00:46:54.651Z,6.43
2023-02-13T00:52:15.187Z,6.20
2023-02-13T00:57:37.937Z,6.60
2023-02-13T01:02:58.544Z,6.57
2023-02-13T01:08:20.768Z,6.70
2023-02-13T01:13:41.568Z,6.93
2023-02-13T01:19:02.065Z,7.13
2023-02-13T01:24:25.389Z,7.90
2023-02-13T01:29:45.988Z,6.28
2023-02-13T01:35:07.803Z,5.55
2023-02-13T01:40:30.065Z,6.93
2023-02-13T01:45:56.327Z,6.70
2023-02-13T01:51:23.468Z,6.93
2023-02-13T01:56:48.675Z,5.90
2023-02-13T02:02:09.874Z,5.32
2023-02-13T02:07:31.653Z,7.40
2023-02-13T02:13:08.470Z,7.82
2023-02-13T02:18:31.238Z,7.32
2023-02-13T02:24:43.869Z,9.35
2023-02-13T02:30:17.656Z,11.20
2023-02-13T02:35:56.426Z,10.43
2023-02-13T02:41:45.556Z,8.32
2023-02-13T02:47:35.809Z,6.75
2023-02-13T02:53:22.041Z,7.40
2023-02-13T02:59:26.303Z,6.90
2023-02-13T03:05:10.765Z,6.22
2023-02-13T03:10:53.367Z,6.72
2023-02-13T03:16:37.918Z,6.93
2023-02-13T03:22:28.653Z,6.93
2023-02-13T03:28:40.818Z,7.55
2023-02-13T03:39:43.477Z,7.55
2023-02-13T03:45:47.789Z,8.63
2023-02-13T03:51:12.382Z,7.68
2023-02-13T03:56:54.312Z,7.25
2023-02-13T04:02:21.533Z,7.95
2023-02-13T04:07:42.169Z,8.52
2023-02-13T04:13:20.873Z,9.65
2023-02-13T04:18:42.853Z,8.55
2023-02-13T04:24:04.600Z,7.72
2023-02-13T04:29:27.384Z,8.00
2023-02-13T04:34:48.157Z,7.78
2023-02-13T04:40:09.677Z,7.22
2023-02-13T04:45:30.441Z,7.88
2023-02-13T04:50:51.217Z,8.52
2023-02-13T04:56:11.939Z,7.20
2023-02-13T05:01:32.768Z,7.25
2023-02-13T05:06:53.282Z,7.63
2023-02-13T05:12:14.050Z,7.85
2023-02-13T05:17:34.769Z,7.63
2023-02-13T05:23:13.852Z,6.95
2023-02-13T05:28:52.987Z,6.10
2023-02-13T05:34:14.008Z,6.95
2023-02-13T05:39:34.903Z,7.53
2023-02-13T05:44:55.499Z,8.35
2023-02-13T05:50:16.478Z,8.13
2023-02-13T05:55:38.752Z,7.40
2023-02-13T06:01:00.572Z,8.02
2023-02-13T06:06:22.796Z,7.35
2023-02-13T06:11:43.553Z,7.03
2023-02-13T06:17:04.332Z,7.20
2023-02-13T06:22:25.104Z,8.63
2023-02-13T06:27:46.717Z,7.93
2023-02-13T06:33:07.762Z,6.55
2023-02-13T06:38:28.736Z,8.60
2023-02-13T06:43:49.376Z,7.20
2023-02-13T06:49:10.331Z,7.43
2023-02-13T06:54:46.246Z,6.97
2023-02-13T07:00:08.749Z,6.57
2023-02-13T07:05:30.218Z,6.90
2023-02-13T07:10:51.130Z,7.25
2023-02-13T07:16:11.790Z,8.18
2023-02-13T07:21:32.334Z,7.97
2023-02-13T07:26:53.017Z,8.23
2023-02-13T07:32:13.665Z,8.02
2023-02-13T07:37:34.573Z,7.45
2023-02-13T07:42:56.023Z,7.57
2023-02-13T07:48:17.079Z,6.80
2023-02-13T07:53:37.791Z,7.82
2023-02-13T07:58:58.725Z,8.90
2023-02-13T08:04:19.303Z,8.07
2023-02-13T08:09:58.496Z,8.32
2023-02-13T08:15:19.499Z,7.65
2023-02-13T08:20:40.372Z,8.82
2023-02-13T08:26:02.090Z,9.45
2023-02-13T08:31:23.470Z,8.05
2023-02-13T08:36:44.280Z,7.95
2023-02-13T08:42:04.989Z,6.82
2023-02-13T08:47:25.718Z,8.60
2023-02-13T08:52:46.637Z,8.70
2023-02-13T08:58:07.153Z,9.15
2023-02-13T09:03:27.895Z,6.95
2023-02-13T09:08:48.486Z,8.35
2023-02-13T09:14:09.320Z,8.88
2023-02-13T09:19:29.925Z,7.60
2023-02-13T09:24:50.740Z,8.48
2023-02-13T09:30:13.122Z,6.45
2023-02-13T09:35:33.921Z,7.50
2023-02-13T09:40:59.868Z,5.60
2023-02-13T09:46:27.038Z,6.32
2023-02-13T09:51:55.786Z,5.57
2023-02-13T09:57:25.877Z,6.22
2023-02-13T10:02:53.479Z,4.78
2023-02-13T10:08:29.658Z,5.00
2023-02-13T10:13:53.517Z,4.13
2023-02-13T10:19:38.378Z,3.55
2023-02-13T10:25:24.157Z,3.58
2023-02-13T10:31:00.889Z,3.70
2023-02-13T10:36:34.070Z,4.40
2023-02-13T10:41:58.680Z,3.97
2023-02-13T10:47:59.304Z,4.20
2023-02-13T10:53:25.902Z,4.67
2023-02-13T10:59:05.367Z,4.38
2023-02-13T11:04:25.888Z,3.20
2023-02-13T11:09:49.636Z,2.50
2023-02-13T11:15:20.967Z,2.05
2023-02-13T11:20:44.713Z,2.30
2023-02-13T11:26:32.940Z,2.20
2023-02-13T11:32:15.752Z,2.60
2023-02-13T11:37:37.630Z,2.25
2023-02-13T11:42:58.421Z,2.83
2023-02-13T11:48:23.345Z,3.95
2023-02-13T11:53:44.139Z,3.03
2023-02-13T11:59:05.527Z,1.80
2023-02-13T12:04:26.182Z,2.03
2023-02-13T12:09:55.464Z,1.60
2023-02-13T12:15:20.933Z,2.05
2023-02-13T12:21:05.847Z,1.60
2023-02-13T12:26:33.589Z,1.58
2023-02-13T12:32:20.150Z,1.60
2023-02-13T12:38:15.625Z,1.77
2023-02-13T12:44:02.508Z,1.90
2023-02-13T12:49:44.852Z,2.08
2023-02-13T12:55:41.840Z,2.00
2023-02-13T13:01:05.675Z,2.42
2023-02-13T13:06:34.963Z,1.88
2023-02-13T13:12:07.866Z,2.03
2023-02-13T13:17:44.107Z,1.98
2023-02-13T13:23:12.320Z,1.85
2023-02-13T13:28:37.286Z,1.92
2023-02-13T13:34:02.347Z,2.10
2023-02-13T13:39:44.398Z,2.47
2023-02-13T13:45:35.656Z,2.58
2023-02-13T13:50:57.270Z,2.00
2023-02-13T13:56:18.268Z,1.45
2023-02-13T14:01:39.002Z,1.85
2023-02-13T14:06:59.449Z,1.83
2023-02-13T14:12:29.471Z,1.88
2023-02-13T14:17:52.451Z,1.80
2023-02-13T14:23:28.588Z,1.98
2023-02-13T14:28:49.448Z,2.10
2023-02-13T14:34:15.039Z,1.88
2023-02-13T14:39:36.621Z,1.88
2023-02-13T14:45:00.637Z,1.67
2023-02-13T14:50:26.667Z,1.88
2023-02-13T14:55:53.976Z,2.50
2023-02-13T15:01:24.261Z,2.22
2023-02-13T15:06:46.798Z,2.10
2023-02-13T15:12:32.431Z,1.70
2023-02-13T15:18:00.758Z,2.20
2023-02-13T15:23:28.421Z,2.33
2023-02-13T15:29:29.299Z,2.00
2023-02-13T15:34:53.730Z,2.03
2023-02-13T15:40:35.647Z,2.88
2023-02-13T15:46:01.498Z,2.45
2023-02-13T15:51:29.778Z,2.20
2023-02-13T15:56:52.072Z,2.95
2023-02-13T16:02:46.196Z,2.45
2023-02-13T16:08:30.686Z,2.60
2023-02-13T16:14:18.461Z,3.78
2023-02-13T16:19:51.358Z,3.60
2023-02-13T16:25:28.705Z,3.28
2023-02-13T16:30:57.501Z,3.20
2023-02-13T16:36:27.308Z,3.38
2023-02-13T16:41:48.437Z,2.95
2023-02-13T16:47:22.276Z,2.80
2023-02-13T16:52:43.188Z,3.47
2023-02-13T16:58:05.482Z,3.20
2023-02-13T17:03:26.398Z,3.60
2023-02-13T17:08:47.036Z,3.20
2023-02-13T17:14:07.944Z,3.70
2023-02-13T17:19:31.222Z,3.72
2023-02-13T17:24:51.898Z,4.05
2023-02-13T17:30:21.788Z,4.05
2023-02-13T17:35:42.613Z,3.63
2023-02-13T17:41:03.294Z,4.72
2023-02-13T17:46:24.191Z,4.38
2023-02-13T17:51:46.016Z,3.00
2023-02-13T17:57:06.598Z,3.83
2023-02-13T18:02:27.965Z,3.97
2023-02-13T18:07:49.040Z,4.47
2023-02-13T18:13:10.105Z,5.28
2023-02-13T18:18:30.839Z,5.30
2023-02-13T18:23:53.379Z,4.78
2023-02-13T18:29:14.357Z,4.65
2023-02-13T18:34:37.003Z,4.63
2023-02-13T18:39:58.668Z,4.78
2023-02-13T18:45:19.600Z,4.60
2023-02-13T18:50:42.266Z,4.47
2023-02-13T18:56:05.870Z,4.55
2023-02-13T19:01:27.001Z,4.10
2023-02-13T19:06:47.789Z,4.28
2023-02-13T19:12:08.611Z,4.20
2023-02-13T19:17:29.587Z,4.45
2023-02-13T19:22:50.255Z,4.82
2023-02-13T19:28:11.351Z,5.15
2023-02-13T19:33:32.218Z,5.18
2023-02-13T19:38:58.354Z,5.13
2023-02-13T19:44:19.551Z,5.63
2023-02-13T19:49:40.271Z,5.70
2023-02-13T19:55:01.840Z,5.88
2023-02-13T20:00:24.591Z,5.50
2023-02-13T20:05:45.665Z,5.63
2023-02-13T20:11:13.085Z,5.70
2023-02-13T20:16:35.595Z,6.35
2023-02-13T20:21:56.540Z,6.07
2023-02-13T20:27:17.371Z,5.50
2023-02-13T20:32:38.506Z,5.57
2023-02-13T20:38:00.261Z,6.13
2023-02-13T20:43:21.091Z,5.15
2023-02-13T20:48:43.763Z,5.75
2023-02-13T20:54:05.173Z,5.70
2023-02-13T20:59:26.001Z,5.82
2023-02-13T21:04:47.329Z,6.53
2023-02-13T21:10:08.764Z,6.05
2023-02-13T21:15:30.222Z,5.75
2023-02-13T21:20:51.437Z,6.50
2023-02-13T21:26:17.276Z,6.10
2023-02-13T21:31:44.210Z,6.53
2023-02-13T21:37:05.541Z,5.75
2023-02-13T21:42:26.171Z,5.85
2023-02-13T21:47:47.335Z,6.43
2023-02-13T21:53:08.627Z,6.55
2023-02-13T21:58:33.280Z,7.80
2023-02-13T22:03:59.842Z,7.25
2023-02-13T22:09:22.485Z,6.85
2023-02-13T22:14:43.396Z,7.25
2023-02-13T22:20:04.550Z,7.88
2023-02-13T22:25:25.368Z,6.88
2023-02-13T22:30:46.188Z,6.97
2023-02-13T22:36:07.245Z,7.25
2023-02-13T22:41:28.390Z,7.28
2023-02-13T22:46:49.174Z,6.88
2023-02-13T22:52:10.827Z,7.60
2023-02-13T22:57:31.655Z,7.43
2023-02-13T23:02:52.363Z,7.40
2023-02-13T23:08:13.632Z,6.93
2023-02-13T23:13:34.399Z,6.82
2023-02-13T23:18:56.697Z,7.80
2023-02-13T23:24:17.400Z,7.82
2023-02-13T23:29:38.735Z,7.95
2023-02-13T23:34:59.703Z,7.38
2023-02-13T23:40:20.588Z,8.43
2023-02-13T23:45:41.536Z,8.32
2023-02-13T23:51:02.709Z,8.23
2023-02-13T23:56:24.921Z,8.90
